sensor_id;sensor_type;location;lat;lon;timestamp;P1;durP1;ratioP1;P2;durP2;ratioP2
15878;SDS011;61999;51.514;14.614;2022-07-25T00:02:17;2.17;;;1.80;;
15878;SDS011;61999;51.514;14.614;2022-07-25T00:04:45;1.77;;;1.67;;
15878;SDS011;61999;51.514;14.614;2022-07-25T00:07:13;1.70;;;1.60;;
15878;SDS011;61999;51.514;14.614;2022-07-25T00:09:42;1.80;;;1.70;;
15878;SDS011;61999;51.514;14.614;2022-07-25T00:12:10;2.47;;;1.73;;
15878;SDS011;61999;51.514;14.614;2022-07-25T00:14:38;1.63;;;1.53;;
15878;SDS011;61999;51.514;14.614;2022-07-25T00:17:07;1.80;;;1.70;;
15878;SDS011;61999;51.514;14.614;2022-07-25T00:19:36;2.40;;;1.77;;
15878;SDS011;61999;51.514;14.614;2022-07-25T00:22:04;1.40;;;1.40;;
15878;SDS011;61999;51.514;14.614;2022-07-25T00:24:33;2.20;;;1.70;;
15878;SDS011;61999;51.514;14.614;2022-07-25T00:27:03;1.60;;;1.50;;
15878;SDS011;61999;51.514;14.614;2022-07-25T00:29:31;1.80;;;1.70;;
15878;SDS011;61999;51.514;14.614;2022-07-25T00:31:59;1.63;;;1.53;;
15878;SDS011;61999;51.514;14.614;2022-07-25T00:34:29;1.53;;;1.43;;
15878;SDS011;61999;51.514;14.614;2022-07-25T00:36:57;1.47;;;1.37;;
15878;SDS011;61999;51.514;14.614;2022-07-25T00:39:25;1.67;;;1.57;;
15878;SDS011;61999;51.514;14.614;2022-07-25T00:41:53;1.90;;;1.70;;
15878;SDS011;61999;51.514;14.614;2022-07-25T00:44:22;1.70;;;1.60;;
15878;SDS011;61999;51.514;14.614;2022-07-25T00:46:51;1.90;;;1.80;;
15878;SDS011;61999;51.514;14.614;2022-07-25T00:49:21;1.80;;;1.60;;
15878;SDS011;61999;51.514;14.614;2022-07-25T00:51:52;1.97;;;1.77;;
15878;SDS011;61999;51.514;14.614;2022-07-25T00:54:21;1.70;;;1.60;;
15878;SDS011;61999;51.514;14.614;2022-07-25T00:56:50;1.53;;;1.37;;
15878;SDS011;61999;51.514;14.614;2022-07-25T00:59:18;1.80;;;1.70;;
15878;SDS011;61999;51.514;14.614;2022-07-25T01:01:46;1.80;;;1.70;;
15878;SDS011;61999;51.514;14.614;2022-07-25T01:04:15;2.17;;;1.97;;
15878;SDS011;61999;51.514;14.614;2022-07-25T01:06:43;1.67;;;1.57;;
15878;SDS011;61999;51.514;14.614;2022-07-25T01:09:13;1.90;;;1.80;;
15878;SDS011;61999;51.514;14.614;2022-07-25T01:11:42;1.50;;;1.40;;
15878;SDS011;61999;51.514;14.614;2022-07-25T01:14:10;1.77;;;1.40;;
15878;SDS011;61999;51.514;14.614;2022-07-25T01:16:39;1.70;;;1.53;;
15878;SDS011;61999;51.514;14.614;2022-07-25T01:19:07;1.50;;;1.40;;
15878;SDS011;61999;51.514;14.614;2022-07-25T01:21:38;1.80;;;1.70;;
15878;SDS011;61999;51.514;14.614;2022-07-25T01:24:08;1.80;;;1.70;;
15878;SDS011;61999;51.514;14.614;2022-07-25T01:26:37;1.63;;;1.53;;
15878;SDS011;61999;51.514;14.614;2022-07-25T01:29:05;1.40;;;1.30;;
15878;SDS011;61999;51.514;14.614;2022-07-25T01:31:33;1.87;;;1.77;;
15878;SDS011;61999;51.514;14.614;2022-07-25T01:34:02;2.10;;;1.70;;
15878;SDS011;61999;51.514;14.614;2022-07-25T01:36:30;1.60;;;1.50;;
15878;SDS011;61999;51.514;14.614;2022-07-25T01:38:59;1.80;;;1.70;;
15878;SDS011;61999;51.514;14.614;2022-07-25T01:41:27;1.60;;;1.50;;
15878;SDS011;61999;51.514;14.614;2022-07-25T01:43:56;2.00;;;1.90;;
15878;SDS011;61999;51.514;14.614;2022-07-25T01:46:24;2.40;;;2.20;;
15878;SDS011;61999;51.514;14.614;2022-07-25T01:48:52;2.60;;;2.40;;
15878;SDS011;61999;51.514;14.614;2022-07-25T01:51:20;2.20;;;2.10;;
15878;SDS011;61999;51.514;14.614;2022-07-25T01:53:48;1.90;;;1.80;;
15878;SDS011;61999;51.514;14.614;2022-07-25T01:56:17;2.30;;;2.10;;
15878;SDS011;61999;51.514;14.614;2022-07-25T01:58:45;1.83;;;1.73;;
15878;SDS011;61999;51.514;14.614;2022-07-25T02:01:14;2.10;;;1.90;;
15878;SDS011;61999;51.514;14.614;2022-07-25T02:03:42;1.83;;;1.73;;
15878;SDS011;61999;51.514;14.614;2022-07-25T02:06:10;2.43;;;2.00;;
15878;SDS011;61999;51.514;14.614;2022-07-25T02:08:38;1.50;;;1.40;;
15878;SDS011;61999;51.514;14.614;2022-07-25T02:11:06;4.20;;;2.10;;
15878;SDS011;61999;51.514;14.614;2022-07-25T02:13:35;2.20;;;2.00;;
15878;SDS011;61999;51.514;14.614;2022-07-25T02:16:03;2.30;;;2.00;;
15878;SDS011;61999;51.514;14.614;2022-07-25T02:18:32;2.20;;;2.00;;
15878;SDS011;61999;51.514;14.614;2022-07-25T02:21:00;2.57;;;2.10;;
15878;SDS011;61999;51.514;14.614;2022-07-25T02:23:32;2.10;;;1.80;;
15878;SDS011;61999;51.514;14.614;2022-07-25T02:26:00;1.93;;;1.83;;
15878;SDS011;61999;51.514;14.614;2022-07-25T02:28:29;2.97;;;2.20;;
15878;SDS011;61999;51.514;14.614;2022-07-25T02:30:59;2.00;;;1.90;;
15878;SDS011;61999;51.514;14.614;2022-07-25T02:33:27;2.87;;;1.83;;
15878;SDS011;61999;51.514;14.614;2022-07-25T02:35:56;1.93;;;1.83;;
15878;SDS011;61999;51.514;14.614;2022-07-25T02:38:24;2.47;;;2.13;;
15878;SDS011;61999;51.514;14.614;2022-07-25T02:40:52;1.87;;;1.77;;
15878;SDS011;61999;51.514;14.614;2022-07-25T02:43:20;2.40;;;2.20;;
15878;SDS011;61999;51.514;14.614;2022-07-25T02:45:49;2.77;;;2.00;;
15878;SDS011;61999;51.514;14.614;2022-07-25T02:48:18;2.13;;;2.00;;
15878;SDS011;61999;51.514;14.614;2022-07-25T02:50:46;2.10;;;1.90;;
15878;SDS011;61999;51.514;14.614;2022-07-25T02:53:14;2.00;;;1.90;;
15878;SDS011;61999;51.514;14.614;2022-07-25T02:55:49;2.20;;;2.00;;
15878;SDS011;61999;51.514;14.614;2022-07-25T02:58:17;1.60;;;1.50;;
15878;SDS011;61999;51.514;14.614;2022-07-25T03:00:45;1.60;;;1.50;;
15878;SDS011;61999;51.514;14.614;2022-07-25T03:03:13;2.03;;;1.93;;
15878;SDS011;61999;51.514;14.614;2022-07-25T03:05:43;2.20;;;2.00;;
15878;SDS011;61999;51.514;14.614;2022-07-25T03:08:11;1.80;;;1.60;;
15878;SDS011;61999;51.514;14.614;2022-07-25T03:10:39;2.43;;;1.90;;
15878;SDS011;61999;51.514;14.614;2022-07-25T03:13:07;1.90;;;1.80;;
15878;SDS011;61999;51.514;14.614;2022-07-25T03:15:35;2.47;;;2.00;;
15878;SDS011;61999;51.514;14.614;2022-07-25T03:18:03;1.80;;;1.70;;
15878;SDS011;61999;51.514;14.614;2022-07-25T03:20:32;1.90;;;1.80;;
15878;SDS011;61999;51.514;14.614;2022-07-25T03:23:01;1.97;;;1.70;;
15878;SDS011;61999;51.514;14.614;2022-07-25T03:25:30;1.80;;;1.70;;
15878;SDS011;61999;51.514;14.614;2022-07-25T03:27:58;1.70;;;1.60;;
15878;SDS011;61999;51.514;14.614;2022-07-25T03:30:27;1.73;;;1.63;;
15878;SDS011;61999;51.514;14.614;2022-07-25T03:32:55;1.80;;;1.70;;
15878;SDS011;61999;51.514;14.614;2022-07-25T03:35:23;1.90;;;1.80;;
15878;SDS011;61999;51.514;14.614;2022-07-25T03:37:51;2.03;;;1.93;;
15878;SDS011;61999;51.514;14.614;2022-07-25T03:40:21;2.53;;;2.00;;
15878;SDS011;61999;51.514;14.614;2022-07-25T03:42:49;1.80;;;1.70;;
15878;SDS011;61999;51.514;14.614;2022-07-25T03:45:17;2.27;;;2.03;;
15878;SDS011;61999;51.514;14.614;2022-07-25T03:47:45;2.83;;;2.00;;
15878;SDS011;61999;51.514;14.614;2022-07-25T03:50:13;2.90;;;2.10;;
15878;SDS011;61999;51.514;14.614;2022-07-25T03:52:41;3.07;;;2.00;;
15878;SDS011;61999;51.514;14.614;2022-07-25T03:55:09;2.00;;;1.80;;
15878;SDS011;61999;51.514;14.614;2022-07-25T03:57:39;1.70;;;1.60;;
15878;SDS011;61999;51.514;14.614;2022-07-25T04:00:08;2.20;;;2.07;;
15878;SDS011;61999;51.514;14.614;2022-07-25T04:02:38;2.07;;;1.93;;
15878;SDS011;61999;51.514;14.614;2022-07-25T04:05:06;2.57;;;2.03;;
15878;SDS011;61999;51.514;14.614;2022-07-25T04:07:36;3.47;;;1.80;;
15878;SDS011;61999;51.514;14.614;2022-07-25T04:10:04;1.70;;;1.60;;
15878;SDS011;61999;51.514;14.614;2022-07-25T04:12:34;2.23;;;2.10;;
15878;SDS011;61999;51.514;14.614;2022-07-25T04:15:04;2.93;;;2.10;;
15878;SDS011;61999;51.514;14.614;2022-07-25T04:17:33;2.13;;;1.93;;
15878;SDS011;61999;51.514;14.614;2022-07-25T04:20:01;2.90;;;2.40;;
15878;SDS011;61999;51.514;14.614;2022-07-25T04:22:31;1.90;;;1.80;;
15878;SDS011;61999;51.514;14.614;2022-07-25T04:24:59;2.20;;;2.00;;
15878;SDS011;61999;51.514;14.614;2022-07-25T04:27:28;2.77;;;2.20;;
15878;SDS011;61999;51.514;14.614;2022-07-25T04:29:56;2.50;;;2.30;;
15878;SDS011;61999;51.514;14.614;2022-07-25T04:32:25;2.43;;;2.23;;
15878;SDS011;61999;51.514;14.614;2022-07-25T04:34:53;2.17;;;1.93;;
15878;SDS011;61999;51.514;14.614;2022-07-25T04:37:21;2.53;;;1.93;;
15878;SDS011;61999;51.514;14.614;2022-07-25T04:39:50;2.37;;;1.77;;
15878;SDS011;61999;51.514;14.614;2022-07-25T04:42:18;2.10;;;1.90;;
15878;SDS011;61999;51.514;14.614;2022-07-25T04:44:46;2.07;;;1.87;;
15878;SDS011;61999;51.514;14.614;2022-07-25T04:47:14;3.80;;;2.40;;
15878;SDS011;61999;51.514;14.614;2022-07-25T04:49:43;3.90;;;2.40;;
15878;SDS011;61999;51.514;14.614;2022-07-25T04:52:11;2.50;;;2.30;;
15878;SDS011;61999;51.514;14.614;2022-07-25T04:54:39;3.00;;;2.80;;
15878;SDS011;61999;51.514;14.614;2022-07-25T04:57:07;3.27;;;3.00;;
15878;SDS011;61999;51.514;14.614;2022-07-25T04:59:36;4.17;;;2.57;;
15878;SDS011;61999;51.514;14.614;2022-07-25T05:02:04;3.30;;;2.30;;
15878;SDS011;61999;51.514;14.614;2022-07-25T05:04:32;2.50;;;2.30;;
15878;SDS011;61999;51.514;14.614;2022-07-25T05:07:01;2.80;;;2.10;;
15878;SDS011;61999;51.514;14.614;2022-07-25T05:09:29;3.57;;;2.43;;
15878;SDS011;61999;51.514;14.614;2022-07-25T05:11:57;1.90;;;1.80;;
15878;SDS011;61999;51.514;14.614;2022-07-25T05:14:25;2.87;;;2.57;;
15878;SDS011;61999;51.514;14.614;2022-07-25T05:16:53;3.13;;;2.20;;
15878;SDS011;61999;51.514;14.614;2022-07-25T05:19:21;2.93;;;2.40;;
15878;SDS011;61999;51.514;14.614;2022-07-25T05:21:49;2.83;;;2.20;;
15878;SDS011;61999;51.514;14.614;2022-07-25T05:24:18;2.10;;;1.90;;
15878;SDS011;61999;51.514;14.614;2022-07-25T05:26:48;2.87;;;2.07;;
15878;SDS011;61999;51.514;14.614;2022-07-25T05:29:16;3.53;;;2.23;;
15878;SDS011;61999;51.514;14.614;2022-07-25T05:31:44;2.03;;;1.93;;
15878;SDS011;61999;51.514;14.614;2022-07-25T05:34:12;3.33;;;2.70;;
15878;SDS011;61999;51.514;14.614;2022-07-25T05:36:40;2.67;;;2.47;;
15878;SDS011;61999;51.514;14.614;2022-07-25T05:39:12;2.30;;;2.10;;
15878;SDS011;61999;51.514;14.614;2022-07-25T05:41:41;2.37;;;2.17;;
15878;SDS011;61999;51.514;14.614;2022-07-25T05:44:09;1.90;;;1.80;;
15878;SDS011;61999;51.514;14.614;2022-07-25T05:46:37;2.97;;;1.87;;
15878;SDS011;61999;51.514;14.614;2022-07-25T05:49:05;2.00;;;1.90;;
15878;SDS011;61999;51.514;14.614;2022-07-25T05:51:33;2.40;;;2.20;;
15878;SDS011;61999;51.514;14.614;2022-07-25T05:54:01;2.90;;;2.57;;
15878;SDS011;61999;51.514;14.614;2022-07-25T05:56:31;2.80;;;1.93;;
15878;SDS011;61999;51.514;14.614;2022-07-25T05:59:00;2.20;;;2.00;;
15878;SDS011;61999;51.514;14.614;2022-07-25T06:01:28;2.30;;;2.10;;
15878;SDS011;61999;51.514;14.614;2022-07-25T06:03:56;2.60;;;2.40;;
15878;SDS011;61999;51.514;14.614;2022-07-25T06:06:24;2.43;;;1.97;;
15878;SDS011;61999;51.514;14.614;2022-07-25T06:08:52;2.33;;;2.17;;
15878;SDS011;61999;51.514;14.614;2022-07-25T06:11:20;2.13;;;2.00;;
15878;SDS011;61999;51.514;14.614;2022-07-25T06:13:48;2.90;;;2.20;;
15878;SDS011;61999;51.514;14.614;2022-07-25T06:16:17;3.03;;;2.30;;
15878;SDS011;61999;51.514;14.614;2022-07-25T06:18:45;2.83;;;1.90;;
15878;SDS011;61999;51.514;14.614;2022-07-25T06:21:13;2.60;;;2.40;;
15878;SDS011;61999;51.514;14.614;2022-07-25T06:23:41;1.97;;;1.87;;
15878;SDS011;61999;51.514;14.614;2022-07-25T06:26:09;2.30;;;2.10;;
15878;SDS011;61999;51.514;14.614;2022-07-25T06:28:37;2.30;;;1.80;;
15878;SDS011;61999;51.514;14.614;2022-07-25T06:31:05;2.43;;;2.17;;
15878;SDS011;61999;51.514;14.614;2022-07-25T06:33:35;2.47;;;2.27;;
15878;SDS011;61999;51.514;14.614;2022-07-25T06:36:03;4.97;;;2.57;;
15878;SDS011;61999;51.514;14.614;2022-07-25T06:38:32;2.00;;;1.90;;
15878;SDS011;61999;51.514;14.614;2022-07-25T06:41:00;5.23;;;2.23;;
15878;SDS011;61999;51.514;14.614;2022-07-25T06:43:28;3.17;;;2.00;;
15878;SDS011;61999;51.514;14.614;2022-07-25T06:45:56;3.07;;;2.37;;
15878;SDS011;61999;51.514;14.614;2022-07-25T06:48:24;2.13;;;1.93;;
15878;SDS011;61999;51.514;14.614;2022-07-25T06:50:53;2.20;;;2.10;;
15878;SDS011;61999;51.514;14.614;2022-07-25T06:53:21;2.50;;;2.30;;
15878;SDS011;61999;51.514;14.614;2022-07-25T06:55:49;2.50;;;2.30;;
15878;SDS011;61999;51.514;14.614;2022-07-25T06:58:17;4.23;;;2.47;;
15878;SDS011;61999;51.514;14.614;2022-07-25T07:00:46;2.40;;;2.20;;
15878;SDS011;61999;51.514;14.614;2022-07-25T07:03:14;2.80;;;2.03;;
15878;SDS011;61999;51.514;14.614;2022-07-25T07:05:41;2.23;;;2.03;;
15878;SDS011;61999;51.514;14.614;2022-07-25T07:08:11;3.10;;;2.40;;
15878;SDS011;61999;51.514;14.614;2022-07-25T07:10:39;2.63;;;2.20;;
15878;SDS011;61999;51.514;14.614;2022-07-25T07:13:10;2.40;;;2.20;;
15878;SDS011;61999;51.514;14.614;2022-07-25T07:15:43;2.80;;;2.60;;
15878;SDS011;61999;51.514;14.614;2022-07-25T07:18:15;3.33;;;2.70;;
15878;SDS011;61999;51.514;14.614;2022-07-25T07:20:44;2.50;;;2.30;;
15878;SDS011;61999;51.514;14.614;2022-07-25T07:23:14;2.67;;;2.47;;
15878;SDS011;61999;51.514;14.614;2022-07-25T07:25:42;2.83;;;2.50;;
15878;SDS011;61999;51.514;14.614;2022-07-25T07:28:12;3.30;;;2.93;;
15878;SDS011;61999;51.514;14.614;2022-07-25T07:30:41;5.23;;;3.17;;
15878;SDS011;61999;51.514;14.614;2022-07-25T07:33:29;2.93;;;2.63;;
15878;SDS011;61999;51.514;14.614;2022-07-25T07:35:58;3.20;;;2.90;;
15878;SDS011;61999;51.514;14.614;2022-07-25T07:38:28;3.63;;;2.50;;
15878;SDS011;61999;51.514;14.614;2022-07-25T07:40:55;3.10;;;2.90;;
15878;SDS011;61999;51.514;14.614;2022-07-25T07:43:24;3.33;;;3.10;;
15878;SDS011;61999;51.514;14.614;2022-07-25T07:45:54;4.50;;;3.20;;
15878;SDS011;61999;51.514;14.614;2022-07-25T07:48:25;3.57;;;3.27;;
15878;SDS011;61999;51.514;14.614;2022-07-25T07:50:53;3.87;;;3.43;;
15878;SDS011;61999;51.514;14.614;2022-07-25T07:53:22;3.23;;;3.03;;
15878;SDS011;61999;51.514;14.614;2022-07-25T07:56:12;4.90;;;3.23;;
15878;SDS011;61999;51.514;14.614;2022-07-25T07:58:40;3.27;;;2.97;;
15878;SDS011;61999;51.514;14.614;2022-07-25T08:01:09;4.33;;;3.63;;
15878;SDS011;61999;51.514;14.614;2022-07-25T08:03:37;4.43;;;3.60;;
15878;SDS011;61999;51.514;14.614;2022-07-25T08:06:06;3.77;;;3.47;;
15878;SDS011;61999;51.514;14.614;2022-07-25T08:08:34;3.57;;;3.27;;
15878;SDS011;61999;51.514;14.614;2022-07-25T08:11:02;3.43;;;3.23;;
15878;SDS011;61999;51.514;14.614;2022-07-25T08:13:31;3.67;;;3.37;;
15878;SDS011;61999;51.514;14.614;2022-07-25T08:16:00;4.50;;;3.37;;
15878;SDS011;61999;51.514;14.614;2022-07-25T08:18:29;3.80;;;3.47;;
15878;SDS011;61999;51.514;14.614;2022-07-25T08:20:59;3.83;;;3.33;;
15878;SDS011;61999;51.514;14.614;2022-07-25T08:23:31;4.10;;;3.80;;
15878;SDS011;61999;51.514;14.614;2022-07-25T08:26:00;4.33;;;4.03;;
15878;SDS011;61999;51.514;14.614;2022-07-25T08:28:29;4.07;;;3.50;;
15878;SDS011;61999;51.514;14.614;2022-07-25T08:30:59;4.63;;;4.20;;
15878;SDS011;61999;51.514;14.614;2022-07-25T08:33:27;3.63;;;3.33;;
15878;SDS011;61999;51.514;14.614;2022-07-25T08:35:55;5.10;;;3.77;;
15878;SDS011;61999;51.514;14.614;2022-07-25T08:38:24;3.50;;;3.20;;
15878;SDS011;61999;51.514;14.614;2022-07-25T08:40:54;4.87;;;4.00;;
15878;SDS011;61999;51.514;14.614;2022-07-25T08:43:24;4.50;;;4.10;;
15878;SDS011;61999;51.514;14.614;2022-07-25T08:45:53;3.80;;;3.50;;
15878;SDS011;61999;51.514;14.614;2022-07-25T08:48:27;3.63;;;3.33;;
15878;SDS011;61999;51.514;14.614;2022-07-25T08:50:55;4.63;;;4.23;;
15878;SDS011;61999;51.514;14.614;2022-07-25T08:53:25;4.03;;;3.73;;
15878;SDS011;61999;51.514;14.614;2022-07-25T08:55:57;5.23;;;4.77;;
15878;SDS011;61999;51.514;14.614;2022-07-25T08:58:25;4.60;;;4.20;;
15878;SDS011;61999;51.514;14.614;2022-07-25T09:00:55;4.43;;;4.13;;
15878;SDS011;61999;51.514;14.614;2022-07-25T09:03:25;4.63;;;4.23;;
15878;SDS011;61999;51.514;14.614;2022-07-25T09:05:53;5.63;;;5.13;;
15878;SDS011;61999;51.514;14.614;2022-07-25T09:08:21;4.73;;;4.40;;
15878;SDS011;61999;51.514;14.614;2022-07-25T09:10:49;5.97;;;5.00;;
15878;SDS011;61999;51.514;14.614;2022-07-25T09:13:20;4.93;;;4.53;;
15878;SDS011;61999;51.514;14.614;2022-07-25T09:15:49;4.20;;;3.90;;
15878;SDS011;61999;51.514;14.614;2022-07-25T09:18:22;5.20;;;4.70;;
15878;SDS011;61999;51.514;14.614;2022-07-25T09:20:56;5.00;;;4.60;;
15878;SDS011;61999;51.514;14.614;2022-07-25T09:23:29;4.97;;;4.53;;
15878;SDS011;61999;51.514;14.614;2022-07-25T09:26:00;4.93;;;4.53;;
15878;SDS011;61999;51.514;14.614;2022-07-25T09:28:30;5.40;;;4.90;;
15878;SDS011;61999;51.514;14.614;2022-07-25T09:31:06;5.40;;;4.97;;
15878;SDS011;61999;51.514;14.614;2022-07-25T09:33:44;5.70;;;5.20;;
15878;SDS011;61999;51.514;14.614;2022-07-25T09:36:14;5.47;;;4.97;;
15878;SDS011;61999;51.514;14.614;2022-07-25T09:38:50;5.47;;;5.07;;
15878;SDS011;61999;51.514;14.614;2022-07-25T09:41:19;5.73;;;5.30;;
15878;SDS011;61999;51.514;14.614;2022-07-25T09:43:47;5.40;;;5.00;;
15878;SDS011;61999;51.514;14.614;2022-07-25T09:46:15;5.45;;;4.97;;
15878;SDS011;61999;51.514;14.614;2022-07-25T09:48:45;5.37;;;4.87;;
15878;SDS011;61999;51.514;14.614;2022-07-25T09:51:24;5.30;;;4.90;;
15878;SDS011;61999;51.514;14.614;2022-07-25T09:53:53;4.95;;;4.55;;
15878;SDS011;61999;51.514;14.614;2022-07-25T09:56:21;4.72;;;4.32;;
15878;SDS011;61999;51.514;14.614;2022-07-25T09:58:49;5.00;;;4.70;;
15878;SDS011;61999;51.514;14.614;2022-07-25T10:01:19;7.05;;;5.20;;
15878;SDS011;61999;51.514;14.614;2022-07-25T10:03:57;5.32;;;4.93;;
15878;SDS011;61999;51.514;14.614;2022-07-25T10:06:43;5.47;;;4.97;;
15878;SDS011;61999;51.514;14.614;2022-07-25T10:09:22;5.20;;;4.70;;
15878;SDS011;61999;51.514;14.614;2022-07-25T10:12:03;5.50;;;5.00;;
15878;SDS011;61999;51.514;14.614;2022-07-25T10:14:33;5.85;;;4.85;;
15878;SDS011;61999;51.514;14.614;2022-07-25T10:17:02;5.75;;;5.25;;
15878;SDS011;61999;51.514;14.614;2022-07-25T10:19:38;5.28;;;4.88;;
15878;SDS011;61999;51.514;14.614;2022-07-25T10:22:11;5.50;;;5.10;;
15878;SDS011;61999;51.514;14.614;2022-07-25T10:24:42;5.72;;;4.88;;
15878;SDS011;61999;51.514;14.614;2022-07-25T10:27:13;6.32;;;4.68;;
15878;SDS011;61999;51.514;14.614;2022-07-25T10:29:51;5.65;;;5.05;;
15878;SDS011;61999;51.514;14.614;2022-07-25T10:32:24;5.30;;;4.68;;
15878;SDS011;61999;51.514;14.614;2022-07-25T10:35:10;5.68;;;5.13;;
15878;SDS011;61999;51.514;14.614;2022-07-25T10:37:43;5.38;;;4.53;;
15878;SDS011;61999;51.514;14.614;2022-07-25T10:40:23;5.72;;;4.93;;
15878;SDS011;61999;51.514;14.614;2022-07-25T10:43:05;5.63;;;5.13;;
15878;SDS011;61999;51.514;14.614;2022-07-25T10:45:36;7.03;;;5.13;;
15878;SDS011;61999;51.514;14.614;2022-07-25T10:48:11;5.13;;;4.68;;
15878;SDS011;61999;51.514;14.614;2022-07-25T10:50:52;5.35;;;4.95;;
15878;SDS011;61999;51.514;14.614;2022-07-25T10:53:34;5.53;;;5.03;;
15878;SDS011;61999;51.514;14.614;2022-07-25T10:56:05;4.95;;;4.60;;
15878;SDS011;61999;51.514;14.614;2022-07-25T10:58:42;5.63;;;5.15;;
15878;SDS011;61999;51.514;14.614;2022-07-25T11:01:20;6.53;;;5.32;;
15878;SDS011;61999;51.514;14.614;2022-07-25T11:03:51;6.07;;;5.53;;
15878;SDS011;61999;51.514;14.614;2022-07-25T11:06:29;5.78;;;5.38;;
15878;SDS011;61999;51.514;14.614;2022-07-25T11:09:01;6.68;;;6.07;;
15878;SDS011;61999;51.514;14.614;2022-07-25T11:11:34;6.65;;;6.07;;
15878;SDS011;61999;51.514;14.614;2022-07-25T11:14:03;6.20;;;5.70;;
15878;SDS011;61999;51.514;14.614;2022-07-25T11:16:40;6.45;;;5.85;;
15878;SDS011;61999;51.514;14.614;2022-07-25T11:19:18;5.68;;;5.28;;
15878;SDS011;61999;51.514;14.614;2022-07-25T11:21:52;6.60;;;6.00;;
15878;SDS011;61999;51.514;14.614;2022-07-25T11:24:32;6.47;;;5.93;;
15878;SDS011;61999;51.514;14.614;2022-07-25T11:27:02;6.00;;;5.60;;
15878;SDS011;61999;51.514;14.614;2022-07-25T11:29:33;6.72;;;6.18;;
15878;SDS011;61999;51.514;14.614;2022-07-25T11:32:03;5.72;;;5.32;;
15878;SDS011;61999;51.514;14.614;2022-07-25T11:34:34;6.28;;;5.85;;
15878;SDS011;61999;51.514;14.614;2022-07-25T11:37:09;5.47;;;5.10;;
15878;SDS011;61999;51.514;14.614;2022-07-25T11:39:40;5.70;;;5.30;;
15878;SDS011;61999;51.514;14.614;2022-07-25T11:42:10;5.57;;;5.28;;
15878;SDS011;61999;51.514;14.614;2022-07-25T11:44:41;6.35;;;5.85;;
15878;SDS011;61999;51.514;14.614;2022-07-25T11:47:21;6.18;;;5.63;;
15878;SDS011;61999;51.514;14.614;2022-07-25T11:49:53;6.15;;;5.70;;
15878;SDS011;61999;51.514;14.614;2022-07-25T11:52:25;5.90;;;5.50;;
15878;SDS011;61999;51.514;14.614;2022-07-25T11:54:57;6.28;;;5.85;;
15878;SDS011;61999;51.514;14.614;2022-07-25T11:57:28;6.10;;;5.70;;
15878;SDS011;61999;51.514;14.614;2022-07-25T11:59:59;6.10;;;5.47;;
15878;SDS011;61999;51.514;14.614;2022-07-25T12:02:30;6.00;;;5.60;;
15878;SDS011;61999;51.514;14.614;2022-07-25T12:05:00;5.70;;;5.32;;
15878;SDS011;61999;51.514;14.614;2022-07-25T12:07:36;5.40;;;5.10;;
15878;SDS011;61999;51.514;14.614;2022-07-25T12:10:07;5.50;;;5.10;;
15878;SDS011;61999;51.514;14.614;2022-07-25T12:12:44;5.30;;;4.90;;
15878;SDS011;61999;51.514;14.614;2022-07-25T12:15:18;5.40;;;5.10;;
15878;SDS011;61999;51.514;14.614;2022-07-25T12:17:49;5.03;;;4.72;;
15878;SDS011;61999;51.514;14.614;2022-07-25T12:20:19;5.22;;;4.93;;
15878;SDS011;61999;51.514;14.614;2022-07-25T12:22:51;5.70;;;5.30;;
15878;SDS011;61999;51.514;14.614;2022-07-25T12:25:21;5.68;;;5.28;;
15878;SDS011;61999;51.514;14.614;2022-07-25T12:27:52;5.50;;;5.10;;
15878;SDS011;61999;51.514;14.614;2022-07-25T12:30:20;5.63;;;5.32;;
15878;SDS011;61999;51.514;14.614;2022-07-25T12:32:48;5.07;;;4.78;;
15878;SDS011;61999;51.514;14.614;2022-07-25T12:35:16;6.55;;;5.90;;
15878;SDS011;61999;51.514;14.614;2022-07-25T12:37:44;5.90;;;5.55;;
15878;SDS011;61999;51.514;14.614;2022-07-25T12:40:14;6.43;;;6.03;;
15878;SDS011;61999;51.514;14.614;2022-07-25T12:42:43;5.88;;;5.38;;
15878;SDS011;61999;51.514;14.614;2022-07-25T12:45:14;5.55;;;5.15;;
15878;SDS011;61999;51.514;14.614;2022-07-25T12:47:44;5.65;;;5.25;;
15878;SDS011;61999;51.514;14.614;2022-07-25T12:50:14;4.40;;;4.20;;
15878;SDS011;61999;51.514;14.614;2022-07-25T12:52:45;5.00;;;4.80;;
15878;SDS011;61999;51.514;14.614;2022-07-25T12:55:16;5.45;;;5.15;;
15878;SDS011;61999;51.514;14.614;2022-07-25T12:57:49;7.93;;;7.32;;
15878;SDS011;61999;51.514;14.614;2022-07-25T13:00:18;6.53;;;6.13;;
15878;SDS011;61999;51.514;14.614;2022-07-25T13:02:48;6.43;;;5.85;;
15878;SDS011;61999;51.514;14.614;2022-07-25T13:05:18;6.50;;;6.00;;
15878;SDS011;61999;51.514;14.614;2022-07-25T13:07:46;6.05;;;5.68;;
15878;SDS011;61999;51.514;14.614;2022-07-25T13:10:17;5.47;;;5.07;;
15878;SDS011;61999;51.514;14.614;2022-07-25T13:12:48;7.13;;;6.57;;
15878;SDS011;61999;51.514;14.614;2022-07-25T13:15:19;6.60;;;6.20;;
15878;SDS011;61999;51.514;14.614;2022-07-25T13:17:48;9.65;;;8.98;;
15878;SDS011;61999;51.514;14.614;2022-07-25T13:20:17;11.00;;;10.30;;
15878;SDS011;61999;51.514;14.614;2022-07-25T13:22:44;10.15;;;9.55;;
15878;SDS011;61999;51.514;14.614;2022-07-25T13:25:12;7.82;;;7.32;;
15878;SDS011;61999;51.514;14.614;2022-07-25T13:27:42;8.88;;;8.25;;
15878;SDS011;61999;51.514;14.614;2022-07-25T13:30:10;8.85;;;8.35;;
15878;SDS011;61999;51.514;14.614;2022-07-25T13:32:39;7.93;;;7.40;;
15878;SDS011;61999;51.514;14.614;2022-07-25T13:35:07;6.68;;;6.18;;
15878;SDS011;61999;51.514;14.614;2022-07-25T13:37:36;5.82;;;5.43;;
15878;SDS011;61999;51.514;14.614;2022-07-25T13:40:04;6.18;;;5.78;;
15878;SDS011;61999;51.514;14.614;2022-07-25T13:42:49;6.47;;;5.97;;
15878;SDS011;61999;51.514;14.614;2022-07-25T13:45:18;7.07;;;6.57;;
15878;SDS011;61999;51.514;14.614;2022-07-25T13:47:48;6.22;;;5.82;;
15878;SDS011;61999;51.514;14.614;2022-07-25T13:50:26;6.78;;;6.38;;
15878;SDS011;61999;51.514;14.614;2022-07-25T13:52:54;6.72;;;6.22;;
15878;SDS011;61999;51.514;14.614;2022-07-25T13:55:24;5.93;;;5.53;;
15878;SDS011;61999;51.514;14.614;2022-07-25T13:57:54;6.60;;;6.07;;
15878;SDS011;61999;51.514;14.614;2022-07-25T14:00:22;6.38;;;6.07;;
15878;SDS011;61999;51.514;14.614;2022-07-25T14:02:51;7.07;;;6.57;;
15878;SDS011;61999;51.514;14.614;2022-07-25T14:05:19;6.32;;;5.93;;
15878;SDS011;61999;51.514;14.614;2022-07-25T14:07:47;7.70;;;7.20;;
15878;SDS011;61999;51.514;14.614;2022-07-25T14:10:15;7.85;;;7.25;;
15878;SDS011;61999;51.514;14.614;2022-07-25T14:12:43;8.70;;;8.10;;
15878;SDS011;61999;51.514;14.614;2022-07-25T14:15:12;9.88;;;9.15;;
15878;SDS011;61999;51.514;14.614;2022-07-25T14:17:40;11.55;;;10.85;;
15878;SDS011;61999;51.514;14.614;2022-07-25T14:20:09;11.30;;;10.57;;
15878;SDS011;61999;51.514;14.614;2022-07-25T14:22:38;20.90;;;17.17;;
15878;SDS011;61999;51.514;14.614;2022-07-25T14:25:07;19.73;;;18.55;;
15878;SDS011;61999;51.514;14.614;2022-07-25T14:27:37;22.50;;;21.20;;
15878;SDS011;61999;51.514;14.614;2022-07-25T14:30:06;23.58;;;22.17;;
15878;SDS011;61999;51.514;14.614;2022-07-25T14:32:37;24.38;;;22.85;;
15878;SDS011;61999;51.514;14.614;2022-07-25T14:35:05;23.27;;;21.90;;
15878;SDS011;61999;51.514;14.614;2022-07-25T14:37:36;25.52;;;23.90;;
15878;SDS011;61999;51.514;14.614;2022-07-25T14:40:05;26.38;;;24.77;;
15878;SDS011;61999;51.514;14.614;2022-07-25T14:42:36;44.03;;;41.28;;
15878;SDS011;61999;51.514;14.614;2022-07-25T14:45:05;47.38;;;44.28;;
15878;SDS011;61999;51.514;14.614;2022-07-25T14:47:34;45.53;;;42.83;;
15878;SDS011;61999;51.514;14.614;2022-07-25T14:50:05;46.03;;;43.00;;